LESU Airport Information

Runway Information
Runway 04 Length 4396 ft width 98 ft
Elevation 0 ft Threshold 0 ft Heading 39
Runway 22 Length 4396 ft Width 98 ft
Elevation 0 ft Threshold 0 ft Heading 219
Airport Frequencies
Airport Navaids
Type NDB Name Seo De Urgel Frequency 340 KHZ
Airport Weather Information & NOTAM
ADDS - METARS form results

(1547 UTC 18 October 2018)
Data provider http://aviationweather.gov/metar/data/
 
METAR text: LESU 181530Z VRB02KT 9999 SCT035 18/13 Q1013
Conditions at: LESU (LA SEU , ES) observed 1530 UTC 18 October 2018
Temperature: 18.0°C (64°F)
Dewpoint: 13.0°C (55°F) [RH = 73%]
Pressure (altimeter): 29.91 inches Hg (1013.0 mb)
Winds: variable direction winds at 2 MPH (2 knots; 1.0 m/s)
Visibility: 6 or more miles (10+ km)
Ceiling: at least 12,000 feet AGL
Clouds: scattered clouds at 3500 feet AGL
Weather: no significant weather observed at this time

METAR text: LESU 181500Z 36003KT 310V080 9999 SCT035 17/13 Q1013
Conditions at: LESU (LA SEU , ES) observed 1500 UTC 18 October 2018
Temperature: 17.0°C (63°F)
Dewpoint: 13.0°C (55°F) [RH = 77%]
Pressure (altimeter): 29.91 inches Hg (1013.0 mb)
Winds: from the N (360 degrees) at 3 MPH (3 knots; 1.5 m/s)
Visibility: 6 or more miles (10+ km)
Ceiling: at least 12,000 feet AGL
Clouds: scattered clouds at 3500 feet AGL
Weather: no significant weather observed at this time

Forecast for: LESU (LA SEU , ES)
Text: TAF LESU 181400Z 1815/1915 VRB04KT 9999 FEW030 TX23/1913Z TN11/1906Z
Forecast period: 1500 UTC 18 October 2018 to 1500 UTC 19 October 2018
Forecast type: FROM: standard forecast or significant change
Winds: variable direction winds at 5 MPH (4 knots; 2.1 m/s)
Visibility: 6 or more miles 10+ km)
Ceiling: at least 12,000 feet AGL
Clouds: few clouds at 3000 feet AGL
Weather: no significant weather forecast for this period
Text: PROB40
Forecast period: 1500 to 2200 UTC 18 October 2018
Forecast type: TEMPORARY: The following changes expected for less than half the time period
Visibility: missing
Ceiling: 4000 feet AGL
Clouds: scattered clouds at 3000 feet AGL
broken clouds at 4000 feet AGL
Weather: SHRA  (rain showers)
Text: TEMPO 1815/1822 SHRA SCT030TCU BKN040
Forecast period: 1000 to 1500 UTC 19 October 2018
Forecast type: TEMPORARY: The following changes expected for less than half the time period
Visibility: 2.49 miles (4.01 km)
Ceiling: 3800 feet AGL
Clouds: few clouds at 3000 feet AGL
broken clouds at 3800 feet AGL
Weather: SHRA  (rain showers)